createdAt,value
2024-02-23T00:00:06.911Z,95.42
2024-02-23T00:02:33.800Z,95.38
2024-02-23T00:05:02.395Z,95.29
2024-02-23T00:07:29.289Z,95.30
2024-02-23T00:09:56.265Z,95.25
2024-02-23T00:12:23.228Z,95.01
2024-02-23T00:14:52.347Z,95.01
2024-02-23T00:17:19.284Z,94.84
2024-02-23T00:19:47.277Z,94.90
2024-02-23T00:22:14.847Z,94.69
2024-02-23T00:24:42.428Z,94.70
2024-02-23T00:27:09.501Z,94.45
2024-02-23T00:29:36.830Z,94.36
2024-02-23T00:32:05.829Z,94.26
2024-02-23T00:34:33.602Z,94.13
2024-02-23T00:37:00.853Z,94.16
2024-02-23T00:39:27.701Z,94.14
2024-02-23T00:41:54.874Z,93.95
2024-02-23T00:44:21.839Z,93.64
2024-02-23T00:46:48.971Z,93.51
2024-02-23T00:49:16.018Z,93.62
2024-02-23T00:51:42.888Z,93.32
2024-02-23T00:54:09.804Z,93.29
2024-02-23T00:56:45.709Z,93.21
2024-02-23T00:59:18.084Z,93.19
2024-02-23T01:01:44.996Z,93.17
2024-02-23T01:04:11.903Z,92.74
2024-02-23T01:06:38.952Z,92.70
2024-02-23T01:09:06.076Z,92.66
2024-02-23T01:11:33.111Z,92.37
2024-02-23T01:14:00.201Z,92.40
2024-02-23T01:16:27.383Z,92.11
2024-02-23T01:18:54.283Z,92.04
2024-02-23T01:21:21.246Z,92.11
2024-02-23T01:23:48.274Z,91.85
2024-02-23T01:26:15.819Z,91.82
2024-02-23T01:28:42.719Z,91.41
2024-02-23T01:31:12.536Z,91.24
2024-02-23T01:33:40.625Z,91.03
2024-02-23T01:36:09.075Z,90.92
2024-02-23T01:38:36.217Z,91.15
2024-02-23T01:41:03.286Z,91.00
2024-02-23T01:43:30.107Z,90.77
2024-02-23T01:45:57.004Z,90.13
2024-02-23T01:48:24.051Z,90.05
2024-02-23T01:50:51.390Z,89.46
2024-02-23T01:53:20.896Z,89.32
2024-02-23T01:55:48.775Z,88.79
2024-02-23T01:58:16.234Z,88.29
2024-02-23T02:00:43.171Z,88.30
2024-02-23T02:03:12.925Z,87.67
2024-02-23T02:05:40.345Z,87.33
2024-02-23T02:08:07.721Z,86.88
2024-02-23T02:10:34.887Z,86.02
2024-02-23T02:13:06.083Z,84.89
2024-02-23T02:15:33.023Z,84.53
2024-02-23T02:18:00.035Z,83.80
2024-02-23T02:20:27.672Z,83.19
2024-02-23T02:22:54.683Z,82.45
2024-02-23T02:25:22.022Z,81.54
2024-02-23T02:27:49.015Z,80.14
2024-02-23T02:30:15.987Z,79.54
2024-02-23T02:32:43.101Z,78.88
2024-02-23T02:35:13.924Z,76.52
2024-02-23T02:37:41.188Z,75.64
2024-02-23T02:40:08.732Z,75.28
2024-02-23T02:42:36.028Z,75.12
2024-02-23T02:45:04.740Z,74.38
2024-02-23T02:47:31.893Z,73.65
2024-02-23T02:49:59.131Z,73.32
2024-02-23T02:52:26.222Z,72.92
2024-02-23T02:54:53.240Z,71.33
2024-02-23T02:57:20.057Z,70.11
2024-02-23T02:59:47.564Z,69.43
2024-02-23T03:02:14.732Z,68.20
2024-02-23T03:04:48.526Z,67.10
2024-02-23T03:07:16.710Z,66.31
2024-02-23T03:09:43.983Z,66.18
2024-02-23T03:12:12.126Z,66.27
2024-02-23T03:14:42.007Z,66.32
2024-02-23T03:17:11.207Z,64.84
2024-02-23T03:19:38.945Z,65.03
2024-02-23T03:22:06.416Z,64.59
2024-02-23T03:24:33.364Z,63.52
2024-02-23T03:27:00.542Z,63.51
2024-02-23T03:29:31.211Z,64.07
2024-02-23T03:31:58.477Z,63.49
2024-02-23T03:34:25.988Z,63.99
2024-02-23T03:36:53.291Z,64.21
2024-02-23T03:39:20.172Z,64.14
2024-02-23T03:41:47.330Z,64.55
2024-02-23T03:44:14.224Z,63.64
2024-02-23T03:46:41.143Z,63.89
2024-02-23T03:49:07.975Z,63.48
2024-02-23T03:51:37.039Z,64.24
2024-02-23T03:54:04.614Z,64.21
2024-02-23T03:56:31.672Z,64.34
2024-02-23T03:58:58.685Z,62.98
2024-02-23T04:01:25.719Z,63.25
2024-02-23T04:03:52.619Z,63.73
2024-02-23T04:06:19.579Z,63.84
2024-02-23T04:08:48.957Z,63.24
2024-02-23T04:11:17.244Z,62.76
2024-02-23T04:13:44.497Z,62.24
2024-02-23T04:16:11.401Z,62.35
2024-02-23T04:18:38.266Z,62.39
2024-02-23T04:21:05.456Z,62.41
2024-02-23T04:23:32.413Z,62.16
2024-02-23T04:26:00.725Z,62.14
2024-02-23T04:28:32.141Z,61.91
2024-02-23T04:30:59.058Z,61.88
2024-02-23T04:33:25.936Z,62.19
2024-02-23T04:35:53.250Z,61.86
2024-02-23T04:38:20.174Z,61.81
2024-02-23T04:40:47.092Z,62.17
2024-02-23T04:43:15.093Z,61.84
2024-02-23T04:45:42.175Z,62.12
2024-02-23T04:48:09.265Z,62.07
2024-02-23T04:50:36.383Z,61.63
2024-02-23T04:53:03.794Z,61.54
2024-02-23T04:55:30.732Z,61.44
2024-02-23T04:57:58.091Z,61.40
2024-02-23T05:00:25.299Z,61.66
2024-02-23T05:02:52.260Z,60.68
2024-02-23T05:05:19.262Z,60.27
2024-02-23T05:07:46.186Z,59.17
2024-02-23T05:10:13.198Z,58.62
2024-02-23T05:12:40.210Z,58.32
2024-02-23T05:15:08.660Z,58.45
2024-02-23T05:17:36.031Z,58.18
2024-02-23T05:20:09.526Z,58.31
2024-02-23T05:22:36.461Z,58.48
2024-02-23T05:25:03.308Z,58.92
2024-02-23T05:27:30.228Z,58.54
2024-02-23T05:29:57.190Z,59.01
2024-02-23T05:32:24.139Z,58.90
2024-02-23T05:34:54.193Z,58.76
2024-02-23T05:37:21.100Z,58.81
2024-02-23T05:39:48.213Z,58.76
2024-02-23T05:42:15.300Z,58.85
2024-02-23T05:44:45.785Z,59.33
2024-02-23T05:47:12.789Z,60.33
2024-02-23T05:49:39.755Z,60.79
2024-02-23T05:52:06.811Z,60.94
2024-02-23T05:54:33.661Z,61.67
2024-02-23T05:57:00.643Z,61.63
2024-02-23T05:59:28.921Z,62.08
2024-02-23T06:01:58.688Z,62.14
2024-02-23T06:04:26.352Z,62.56
2024-02-23T06:06:53.342Z,62.67
2024-02-23T06:09:20.547Z,63.00
2024-02-23T06:11:47.754Z,63.07
2024-02-23T06:14:15.240Z,63.14
2024-02-23T06:16:42.236Z,63.29
2024-02-23T06:19:09.760Z,63.65
2024-02-23T06:21:38.004Z,63.71
2024-02-23T06:24:06.278Z,63.80
2024-02-23T06:26:33.427Z,64.00
2024-02-23T06:29:00.627Z,64.14
2024-02-23T06:31:28.047Z,64.26
2024-02-23T06:33:55.236Z,64.81
2024-02-23T06:36:22.128Z,64.50
2024-02-23T06:38:49.068Z,64.72
2024-02-23T06:41:16.260Z,65.04
2024-02-23T06:43:43.305Z,64.79
2024-02-23T06:46:10.950Z,64.00
2024-02-23T06:48:38.609Z,64.01
2024-02-23T06:51:06.501Z,63.80
2024-02-23T06:53:33.598Z,63.95
2024-02-23T06:56:00.742Z,64.14
2024-02-23T06:58:30.309Z,63.75
2024-02-23T07:00:57.412Z,63.85
2024-02-23T07:03:24.402Z,63.84
2024-02-23T07:05:51.852Z,63.55
2024-02-23T07:08:19.496Z,63.82
2024-02-23T07:10:46.768Z,63.42
2024-02-23T07:13:15.986Z,63.41
2024-02-23T07:15:43.013Z,63.74
2024-02-23T07:18:10.094Z,63.81
2024-02-23T07:20:38.740Z,63.81
2024-02-23T07:23:06.577Z,63.96
2024-02-23T07:25:33.482Z,63.55
2024-02-23T07:28:00.647Z,63.67
2024-02-23T07:30:27.694Z,64.07
2024-02-23T07:32:54.588Z,64.24
2024-02-23T07:35:21.659Z,63.92
2024-02-23T07:37:48.704Z,64.10
2024-02-23T07:40:18.285Z,63.77
2024-02-23T07:42:47.535Z,63.45
2024-02-23T07:45:14.603Z,63.57
2024-02-23T07:47:41.534Z,63.59
2024-02-23T07:50:09.956Z,63.16
2024-02-23T07:52:36.972Z,62.63
2024-02-23T07:55:06.726Z,62.29
2024-02-23T07:57:34.491Z,62.19
2024-02-23T08:00:01.671Z,62.45
2024-02-23T08:02:43.212Z,61.84
2024-02-23T08:05:11.466Z,62.11
2024-02-23T08:07:38.830Z,62.26
2024-02-23T08:10:06.516Z,62.52
2024-02-23T08:12:33.509Z,62.18
2024-02-23T08:15:00.826Z,62.16
2024-02-23T08:17:28.079Z,61.28
2024-02-23T08:19:55.138Z,60.89
2024-02-23T08:22:22.113Z,61.03
2024-02-23T08:24:49.219Z,60.92
2024-02-23T08:27:16.819Z,60.71
2024-02-23T08:29:46.734Z,60.64
2024-02-23T08:32:14.534Z,60.36
2024-02-23T08:34:50.174Z,59.42
2024-02-23T08:37:30.482Z,59.60
2024-02-23T08:40:06.207Z,59.83
2024-02-23T08:42:52.741Z,59.58
2024-02-23T08:45:23.841Z,58.92
2024-02-23T08:48:11.204Z,59.35
2024-02-23T08:50:48.755Z,59.54
2024-02-23T08:53:18.762Z,59.43
2024-02-23T08:56:14.090Z,59.57
2024-02-23T08:58:51.836Z,59.57
2024-02-23T09:01:18.692Z,59.40
2024-02-23T09:03:45.713Z,59.25
2024-02-23T09:06:12.819Z,59.26
2024-02-23T09:08:40.736Z,59.17
2024-02-23T09:11:07.897Z,59.52
2024-02-23T09:13:34.919Z,59.43
2024-02-23T09:16:02.286Z,59.38
2024-02-23T09:18:29.296Z,59.32
2024-02-23T09:20:56.351Z,59.61
2024-02-23T09:23:23.253Z,59.15
2024-02-23T09:25:50.200Z,59.09
2024-02-23T09:28:17.271Z,58.83
2024-02-23T09:30:45.270Z,58.21
2024-02-23T09:33:12.140Z,58.38
2024-02-23T09:35:39.298Z,58.22
2024-02-23T09:38:06.467Z,58.26
2024-02-23T09:40:33.545Z,57.96
2024-02-23T09:43:00.782Z,58.18
2024-02-23T09:45:31.036Z,58.01
2024-02-23T09:47:58.913Z,57.78
2024-02-23T09:50:26.304Z,57.18
2024-02-23T09:52:57.963Z,57.28
2024-02-23T09:55:25.012Z,56.98
2024-02-23T09:57:56.250Z,56.53
2024-02-23T10:00:24.628Z,56.50
2024-02-23T10:02:52.280Z,55.84
2024-02-23T10:05:19.618Z,54.42
2024-02-23T10:07:48.203Z,54.74
2024-02-23T10:10:15.272Z,54.60
2024-02-23T10:12:42.190Z,53.93
2024-02-23T10:15:09.147Z,54.05
2024-02-23T10:17:36.816Z,53.82
2024-02-23T10:20:07.579Z,53.50
2024-02-23T10:22:34.528Z,53.81
2024-02-23T10:25:01.541Z,52.80
2024-02-23T10:27:29.266Z,53.25
2024-02-23T10:29:56.457Z,53.15
2024-02-23T10:32:24.535Z,52.87
2024-02-23T10:34:53.520Z,53.05
2024-02-23T10:37:20.549Z,52.96
2024-02-23T10:39:47.541Z,53.05
2024-02-23T10:42:15.263Z,52.93
2024-02-23T10:44:42.566Z,52.99
2024-02-23T10:47:10.166Z,52.52
2024-02-23T10:49:37.966Z,52.74
2024-02-23T10:52:05.280Z,52.19
2024-02-23T10:54:32.940Z,52.58
2024-02-23T10:56:59.982Z,52.36
2024-02-23T10:59:28.166Z,52.51
2024-02-23T11:01:55.718Z,52.74
2024-02-23T11:04:23.497Z,52.69
2024-02-23T11:06:54.388Z,51.84
2024-02-23T11:09:25.847Z,52.12
2024-02-23T11:12:00.489Z,51.85
2024-02-23T11:14:36.515Z,51.71
2024-02-23T11:17:04.881Z,51.74
2024-02-23T11:19:40.928Z,52.04
2024-02-23T11:22:16.612Z,51.73
2024-02-23T11:24:53.039Z,51.62
2024-02-23T11:27:23.046Z,51.34
2024-02-23T11:30:00.588Z,51.11
2024-02-23T11:32:39.822Z,50.87
2024-02-23T11:35:10.168Z,50.95
2024-02-23T11:38:00.566Z,51.24
2024-02-23T11:40:27.920Z,51.24
2024-02-23T11:42:58.117Z,50.19
2024-02-23T11:45:25.207Z,50.46
2024-02-23T11:47:54.629Z,50.40
2024-02-23T11:50:22.346Z,51.04
2024-02-23T11:52:49.604Z,51.20
2024-02-23T11:55:24.330Z,51.29
2024-02-23T11:57:58.999Z,50.85
2024-02-23T12:00:47.185Z,51.28
2024-02-23T12:03:14.385Z,50.98
2024-02-23T12:05:44.360Z,50.88
2024-02-23T12:08:11.660Z,51.10
2024-02-23T12:10:42.139Z,50.81
2024-02-23T12:13:09.819Z,50.72
2024-02-23T12:15:36.855Z,50.24
2024-02-23T12:18:04.972Z,50.20
2024-02-23T12:20:34.943Z,50.49
2024-02-23T12:23:07.051Z,50.35
2024-02-23T12:25:35.028Z,50.77
2024-02-23T12:28:03.102Z,50.65
2024-02-23T12:30:49.769Z,50.75
2024-02-23T12:33:44.328Z,50.52
2024-02-23T12:36:12.963Z,50.41
2024-02-23T12:38:49.823Z,50.52
2024-02-23T12:41:27.009Z,50.28
2024-02-23T12:44:07.329Z,50.20
2024-02-23T12:46:34.411Z,50.64
2024-02-23T12:49:01.355Z,50.24
2024-02-23T12:51:30.740Z,50.42
2024-02-23T12:53:57.603Z,50.21
2024-02-23T12:56:26.700Z,50.05
2024-02-23T12:58:55.539Z,50.13
2024-02-23T13:01:22.675Z,50.29
2024-02-23T13:03:49.758Z,50.16
2024-02-23T13:06:16.817Z,50.29
2024-02-23T13:08:44.660Z,50.24
2024-02-23T13:11:11.760Z,50.22
2024-02-23T13:13:40.337Z,50.53
2024-02-23T13:16:09.860Z,50.64
2024-02-23T13:18:36.848Z,50.77
2024-02-23T13:21:05.040Z,50.91
2024-02-23T13:23:32.096Z,50.74
2024-02-23T13:25:59.484Z,50.61
2024-02-23T13:28:26.552Z,50.71
2024-02-23T13:30:53.484Z,50.21
2024-02-23T13:33:22.192Z,50.67
2024-02-23T13:35:49.574Z,50.60
2024-02-23T13:38:16.569Z,50.75
2024-02-23T13:40:43.584Z,50.84
2024-02-23T13:43:11.314Z,50.80
2024-02-23T13:45:51.152Z,50.75
2024-02-23T13:48:19.974Z,50.89
2024-02-23T13:50:50.373Z,50.81
2024-02-23T13:53:20.898Z,50.74
2024-02-23T13:55:47.881Z,51.21
2024-02-23T13:58:14.814Z,51.22
2024-02-23T14:00:41.780Z,51.45
2024-02-23T14:03:09.029Z,51.89
2024-02-23T14:05:36.077Z,51.75
2024-02-23T14:08:04.316Z,52.26
2024-02-23T14:10:32.930Z,51.85
2024-02-23T14:12:59.996Z,52.02
2024-02-23T14:15:28.245Z,51.84
2024-02-23T14:17:55.260Z,51.89
2024-02-23T14:20:39.467Z,52.02
2024-02-23T14:23:08.661Z,52.25
2024-02-23T14:25:35.593Z,52.35
2024-02-23T14:28:02.547Z,52.19
2024-02-23T14:30:29.571Z,52.42
2024-02-23T14:32:56.544Z,52.17
2024-02-23T14:35:23.495Z,52.32
2024-02-23T14:37:50.412Z,52.23
2024-02-23T14:40:17.553Z,52.65
2024-02-23T14:42:44.487Z,52.60
2024-02-23T14:45:13.508Z,53.06
2024-02-23T14:47:45.934Z,52.75
2024-02-23T14:50:13.825Z,53.09
2024-02-23T14:52:41.072Z,53.30
2024-02-23T14:55:08.242Z,53.17
2024-02-23T14:57:35.093Z,53.39
2024-02-23T15:00:03.739Z,53.50
2024-02-23T15:02:30.721Z,53.07
2024-02-23T15:04:57.727Z,53.43
2024-02-23T15:07:24.812Z,52.51
2024-02-23T15:09:51.853Z,52.37
2024-02-23T15:12:19.248Z,52.27
2024-02-23T15:14:46.290Z,51.88
2024-02-23T15:17:13.561Z,52.36
2024-02-23T15:19:40.613Z,52.33
2024-02-23T15:23:49.259Z,52.42
2024-02-23T15:27:09.824Z,52.63
2024-02-23T15:29:33.135Z,53.30
2024-02-23T15:32:02.592Z,53.13
2024-02-23T15:34:34.258Z,53.05
2024-02-23T15:37:11.698Z,52.96
2024-02-23T15:39:39.869Z,53.44
2024-02-23T15:42:06.964Z,53.74
2024-02-23T15:44:34.265Z,54.00
2024-02-23T15:47:02.923Z,54.25
2024-02-23T15:50:09.218Z,54.03
2024-02-23T15:52:45.033Z,54.01
2024-02-23T15:55:13.487Z,54.18
2024-02-23T15:57:40.758Z,54.43
2024-02-23T16:00:11.970Z,54.12
2024-02-23T16:02:39.110Z,54.50
2024-02-23T16:05:08.809Z,54.98
2024-02-23T16:07:36.312Z,55.07
2024-02-23T16:10:03.933Z,55.47
2024-02-23T16:12:30.904Z,55.75
2024-02-23T16:14:58.077Z,55.82
2024-02-23T16:17:25.016Z,55.89
2024-02-23T16:19:52.246Z,56.16
2024-02-23T16:22:19.529Z,56.38
2024-02-23T16:24:48.215Z,56.54
2024-02-23T16:27:15.908Z,56.79
2024-02-23T16:29:51.374Z,56.83
2024-02-23T16:32:33.753Z,57.61
2024-02-23T16:35:11.683Z,57.86
2024-02-23T16:37:38.605Z,58.16
2024-02-23T16:40:06.037Z,57.91
2024-02-23T16:42:32.946Z,58.14
2024-02-23T16:44:59.912Z,58.55
2024-02-23T16:47:26.890Z,58.65
2024-02-23T16:49:54.121Z,58.78
2024-02-23T16:52:21.419Z,59.04
2024-02-23T16:54:48.653Z,59.16
2024-02-23T16:57:15.553Z,59.33
2024-02-23T16:59:42.481Z,59.27
2024-02-23T17:02:09.396Z,59.49
2024-02-23T17:04:37.362Z,59.34
2024-02-23T17:07:04.505Z,59.51
2024-02-23T17:09:31.539Z,59.66
2024-02-23T17:11:58.497Z,59.94
2024-02-23T17:14:26.512Z,59.79
2024-02-23T17:16:53.382Z,59.63
2024-02-23T17:19:20.311Z,59.69
2024-02-23T17:21:47.481Z,59.88
2024-02-23T17:24:14.381Z,60.07
2024-02-23T17:26:41.422Z,59.70
2024-02-23T17:29:10.657Z,59.90
2024-02-23T17:31:37.675Z,59.96
2024-02-23T17:34:04.657Z,60.35
2024-02-23T17:36:31.672Z,60.71
2024-02-23T17:38:58.584Z,60.97
2024-02-23T17:41:26.638Z,60.77
2024-02-23T17:43:53.671Z,60.66
2024-02-23T17:46:20.495Z,60.79
2024-02-23T17:48:47.428Z,60.62
2024-02-23T17:51:14.974Z,61.05
2024-02-23T17:53:41.902Z,60.94
2024-02-23T17:56:09.446Z,61.03
2024-02-23T17:58:37.185Z,60.83
2024-02-23T18:01:04.960Z,61.22
2024-02-23T18:03:32.252Z,61.44
2024-02-23T18:05:59.222Z,61.32
2024-02-23T18:08:26.150Z,61.10
2024-02-23T18:10:53.014Z,61.32
2024-02-23T18:13:19.913Z,61.39
2024-02-23T18:15:47.080Z,61.64
2024-02-23T18:18:15.583Z,61.99
2024-02-23T18:20:45.131Z,62.11
2024-02-23T18:23:12.179Z,62.34
2024-02-23T18:25:39.081Z,62.55
2024-02-23T18:28:06.021Z,62.73
2024-02-23T18:30:32.927Z,63.03
2024-02-23T18:32:59.935Z,62.92
2024-02-23T18:35:27.101Z,63.17
2024-02-23T18:37:53.954Z,63.42
2024-02-23T18:40:20.738Z,63.69
2024-02-23T18:42:47.668Z,63.67
2024-02-23T18:45:15.699Z,63.64
2024-02-23T18:47:42.634Z,63.97
2024-02-23T18:50:10.262Z,63.79
2024-02-23T18:52:37.467Z,64.05
2024-02-23T18:55:04.659Z,64.11
2024-02-23T18:57:32.677Z,64.23
2024-02-23T18:59:59.856Z,64.11
2024-02-23T19:02:27.172Z,64.31
2024-02-23T19:04:54.131Z,64.07
2024-02-23T19:07:21.258Z,64.03
2024-02-23T19:09:48.210Z,63.83
2024-02-23T19:12:15.336Z,64.15
2024-02-23T19:14:42.395Z,63.89
2024-02-23T19:17:10.328Z,63.93
2024-02-23T19:19:37.801Z,63.71
2024-02-23T19:22:05.090Z,64.03
2024-02-23T19:24:32.172Z,64.26
2024-02-23T19:27:00.972Z,64.06
2024-02-23T19:29:28.386Z,64.27
2024-02-23T19:31:55.408Z,64.24
2024-02-23T19:34:22.485Z,64.43
2024-02-23T19:36:50.056Z,64.33
2024-02-23T19:39:16.929Z,64.23
2024-02-23T19:41:47.168Z,64.17
2024-02-23T19:44:14.461Z,64.69
2024-02-23T19:46:41.372Z,64.59
2024-02-23T19:49:08.847Z,64.96
2024-02-23T19:51:37.446Z,64.67
2024-02-23T19:54:05.818Z,65.02
2024-02-23T19:56:33.135Z,64.94
2024-02-23T19:59:11.339Z,65.11
2024-02-23T20:01:40.537Z,65.33
2024-02-23T20:04:10.995Z,65.26
2024-02-23T20:07:38.099Z,65.11
2024-02-23T20:10:07.230Z,65.15
2024-02-23T20:16:29.153Z,65.25
2024-02-23T20:18:59.905Z,65.55
2024-02-23T20:21:36.255Z,65.53
2024-02-23T20:24:59.202Z,65.36
2024-02-23T20:27:31.640Z,65.33
2024-02-23T20:30:00.795Z,65.46
2024-02-23T20:32:30.287Z,65.73
2024-02-23T20:35:28.357Z,65.43
2024-02-23T20:37:59.671Z,65.63
2024-02-23T20:40:31.860Z,65.66
2024-02-23T20:42:59.698Z,65.83
2024-02-23T20:45:46.692Z,65.71
2024-02-23T20:48:29.128Z,65.90
2024-02-23T20:51:19.398Z,66.08
2024-02-23T20:53:48.943Z,66.16
2024-02-23T20:56:16.069Z,66.37
2024-02-23T20:58:43.147Z,66.25
2024-02-23T21:01:10.307Z,66.25
2024-02-23T21:03:38.341Z,66.12
2024-02-23T21:06:08.848Z,66.38
2024-02-23T21:08:37.956Z,66.23
2024-02-23T21:11:05.036Z,66.19
2024-02-23T21:13:32.139Z,66.60
2024-02-23T21:15:59.302Z,66.51
2024-02-23T21:18:26.353Z,66.23
2024-02-23T21:20:53.453Z,66.16
2024-02-23T21:23:29.535Z,66.33
2024-02-23T21:25:59.376Z,66.38
2024-02-23T21:28:28.922Z,66.48
2024-02-23T21:31:17.174Z,66.39
2024-02-23T21:36:41.898Z,66.32
2024-02-23T21:37:29.398Z,66.53
2024-02-23T21:39:56.409Z,66.56
2024-02-23T21:42:30.719Z,66.88
2024-02-23T21:45:00.144Z,66.40
2024-02-23T21:47:27.499Z,66.76
2024-02-23T21:49:54.527Z,66.63
2024-02-23T21:52:26.364Z,66.72
2024-02-23T21:54:59.060Z,66.79
2024-02-23T21:57:53.944Z,67.07
2024-02-23T22:00:23.406Z,66.93
2024-02-23T22:03:16.705Z,66.79
2024-02-23T22:05:56.526Z,66.70
2024-02-23T22:08:38.029Z,66.87
2024-02-23T22:11:37.112Z,67.09
2024-02-23T22:14:09.973Z,67.05
2024-02-23T22:16:39.405Z,66.95
2024-02-23T22:19:13.638Z,67.28
2024-02-23T22:22:15.985Z,67.02
2024-02-23T22:27:21.129Z,67.16
2024-02-23T22:27:56.307Z,67.08
2024-02-23T22:30:23.310Z,67.39
2024-02-23T22:33:18.214Z,67.61
2024-02-23T22:37:07.075Z,67.57
2024-02-23T22:39:26.117Z,67.56
2024-02-23T22:42:21.782Z,67.94
2024-02-23T22:45:38.812Z,67.70
2024-02-23T22:48:24.975Z,67.93
2024-02-23T22:51:29.527Z,67.86
2024-02-23T22:54:15.690Z,68.14
2024-02-23T22:56:55.257Z,68.20
2024-02-23T22:59:49.282Z,68.29
2024-02-23T23:03:17.653Z,68.18
2024-02-23T23:05:25.526Z,68.44
2024-02-23T23:08:17.473Z,68.37
2024-02-23T23:13:27.764Z,68.26
2024-02-23T23:14:05.741Z,68.19
2024-02-23T23:16:43.409Z,68.38
2024-02-23T23:19:14.659Z,68.35
2024-02-23T23:22:01.363Z,68.43
2024-02-23T23:24:31.910Z,68.22
2024-02-23T23:27:10.016Z,68.35
2024-02-23T23:29:45.946Z,68.51
2024-02-23T23:32:18.740Z,68.57
2024-02-23T23:34:45.970Z,68.52
2024-02-23T23:37:58.374Z,68.61
2024-02-23T23:40:48.986Z,68.60
2024-02-23T23:43:31.868Z,68.36
2024-02-23T23:46:13.063Z,68.34
2024-02-23T23:48:44.795Z,68.50
2024-02-23T23:51:13.377Z,68.42
2024-02-23T23:53:44.958Z,68.37
2024-02-23T23:56:39.410Z,68.30
2024-02-23T23:59:11.999Z,68.56
